createdAt,value
2023-05-12T00:01:59.020Z,12.42
2023-05-12T00:04:26.847Z,12.35
2023-05-12T00:06:54.320Z,12.35
2023-05-12T00:09:21.838Z,12.46
2023-05-12T00:11:49.444Z,12.28
2023-05-12T00:14:17.203Z,12.39
2023-05-12T00:16:44.761Z,12.38
2023-05-12T00:19:13.593Z,12.43
2023-05-12T00:21:41.572Z,12.56
2023-05-12T00:24:09.534Z,12.55
2023-05-12T00:26:37.027Z,12.43
2023-05-12T00:29:04.540Z,12.54
2023-05-12T00:31:32.065Z,12.51
2023-05-12T00:33:59.596Z,12.45
2023-05-12T00:36:28.498Z,12.46
2023-05-12T00:38:56.108Z,12.48
2023-05-12T00:41:23.575Z,12.44
2023-05-12T00:43:51.242Z,12.48
2023-05-12T00:46:19.045Z,12.45
2023-05-12T00:48:46.628Z,12.39
2023-05-12T00:51:14.541Z,12.64
2023-05-12T00:53:49.882Z,12.59
2023-05-12T00:56:19.744Z,12.75
2023-05-12T00:58:47.372Z,12.72
2023-05-12T01:01:14.920Z,12.56
2023-05-12T01:03:42.574Z,12.46
2023-05-12T01:06:14.479Z,12.44
2023-05-12T01:08:43.532Z,12.51
2023-05-12T01:11:10.957Z,12.48
2023-05-12T01:13:39.420Z,12.59
2023-05-12T01:16:08.961Z,12.52
2023-05-12T01:18:39.166Z,12.39
2023-05-12T01:21:06.986Z,12.29
2023-05-12T01:23:36.480Z,12.33
2023-05-12T01:26:06.518Z,12.33
2023-05-12T01:28:34.322Z,12.30
2023-05-12T01:31:04.568Z,12.28
2023-05-12T01:33:32.207Z,12.31
2023-05-12T01:35:59.638Z,12.23
2023-05-12T01:38:27.114Z,12.25
2023-05-12T01:40:54.575Z,12.30
2023-05-12T01:43:23.462Z,12.38
2023-05-12T01:45:50.906Z,12.36
2023-05-12T01:48:18.323Z,12.27
2023-05-12T01:50:45.769Z,12.24
2023-05-12T01:53:13.259Z,12.27
2023-05-12T01:55:40.835Z,12.28
2023-05-12T01:58:08.287Z,12.37
2023-05-12T02:00:37.054Z,12.52
2023-05-12T02:03:04.598Z,12.54
2023-05-12T02:05:32.133Z,12.55
2023-05-12T02:07:59.615Z,12.56
2023-05-12T02:10:27.690Z,12.57
2023-05-12T02:12:55.113Z,12.52
2023-05-12T02:15:22.755Z,12.46
2023-05-12T02:17:54.281Z,12.38
2023-05-12T02:20:22.167Z,12.33
2023-05-12T02:22:49.744Z,12.34
2023-05-12T02:25:17.339Z,12.27
2023-05-12T02:27:45.502Z,12.23
2023-05-12T02:30:13.265Z,12.23
2023-05-12T02:32:41.031Z,12.26
2023-05-12T02:35:11.105Z,12.28
2023-05-12T02:37:38.528Z,12.27
2023-05-12T02:40:07.658Z,12.26
2023-05-12T02:42:38.238Z,12.23
2023-05-12T02:45:06.690Z,12.25
2023-05-12T02:47:34.212Z,12.25
2023-05-12T02:50:01.699Z,12.30
2023-05-12T02:52:30.741Z,12.35
2023-05-12T02:54:58.173Z,12.36
2023-05-12T02:57:31.907Z,12.33
2023-05-12T02:59:59.355Z,12.27
2023-05-12T03:02:27.024Z,12.27
2023-05-12T03:04:54.615Z,12.22
2023-05-12T03:07:22.078Z,12.17
2023-05-12T03:09:50.920Z,12.14
2023-05-12T03:12:18.395Z,12.32
2023-05-12T03:14:46.013Z,12.43
2023-05-12T03:17:13.577Z,12.58
2023-05-12T03:19:41.131Z,12.56
2023-05-12T03:22:08.621Z,12.42
2023-05-12T03:24:36.533Z,12.59
2023-05-12T03:27:05.647Z,12.32
2023-05-12T03:29:33.127Z,12.31
2023-05-12T03:32:00.598Z,12.52
2023-05-12T03:34:28.031Z,12.62
2023-05-12T03:36:55.512Z,12.52
2023-05-12T03:39:24.735Z,12.44
2023-05-12T03:41:52.185Z,12.55
2023-05-12T03:44:21.214Z,12.58
2023-05-12T03:46:48.732Z,12.76
2023-05-12T03:49:16.302Z,12.63
2023-05-12T03:51:43.756Z,12.38
2023-05-12T03:54:11.208Z,12.34
2023-05-12T03:56:38.653Z,12.26
2023-05-12T03:59:06.384Z,12.36
2023-05-12T04:01:35.635Z,12.35
2023-05-12T04:04:03.182Z,12.25
2023-05-12T04:06:31.698Z,12.04
2023-05-12T04:08:59.800Z,11.99
2023-05-12T04:11:27.271Z,12.00
2023-05-12T04:13:55.066Z,12.17
2023-05-12T04:16:22.553Z,12.20
2023-05-12T04:18:51.699Z,12.25
2023-05-12T04:21:19.167Z,12.37
2023-05-12T04:23:46.636Z,12.34
2023-05-12T04:26:14.101Z,12.46
2023-05-12T04:28:41.522Z,12.63
2023-05-12T04:31:08.969Z,12.55
2023-05-12T04:33:36.479Z,12.53
2023-05-12T04:36:05.681Z,12.76
2023-05-12T04:38:33.153Z,12.78
2023-05-12T04:41:00.716Z,12.84
2023-05-12T04:46:00.250Z,12.96
2023-05-12T04:48:28.101Z,13.08
2023-05-12T04:50:55.718Z,13.00
2023-05-12T04:53:24.516Z,12.87
2023-05-12T04:55:52.590Z,12.80
2023-05-12T04:58:20.048Z,12.80
2023-05-12T05:00:47.697Z,12.68
2023-05-12T05:03:15.244Z,12.74
2023-05-12T05:05:42.777Z,12.74
2023-05-12T05:08:10.218Z,12.71
2023-05-12T05:10:39.194Z,12.67
2023-05-12T05:13:06.619Z,12.77
2023-05-12T05:15:34.155Z,12.65
2023-05-12T05:18:02.144Z,12.79
2023-05-12T05:20:29.849Z,12.78
2023-05-12T05:22:57.316Z,12.80
2023-05-12T05:25:26.370Z,12.85
2023-05-12T05:27:55.638Z,12.83
2023-05-12T05:30:23.123Z,12.77
2023-05-12T05:32:50.633Z,12.77
2023-05-12T05:35:18.747Z,12.80
2023-05-12T05:37:46.357Z,12.80
2023-05-12T05:40:14.211Z,12.79
2023-05-12T05:42:41.771Z,12.82
2023-05-12T05:45:11.765Z,12.82
2023-05-12T05:47:39.359Z,12.86
2023-05-12T05:50:08.709Z,12.81
2023-05-12T05:52:36.186Z,12.80
2023-05-12T05:55:03.692Z,12.88
2023-05-12T05:57:31.131Z,12.81
2023-05-12T05:59:58.679Z,12.88
2023-05-12T06:02:27.627Z,12.87
2023-05-12T06:04:55.241Z,12.88
2023-05-12T06:07:22.694Z,12.84
2023-05-12T06:09:50.212Z,12.90
2023-05-12T06:12:17.660Z,12.92
2023-05-12T06:14:45.176Z,12.97
2023-05-12T06:17:12.726Z,13.00
2023-05-12T06:19:41.531Z,13.03
2023-05-12T06:22:08.948Z,13.15
2023-05-12T06:24:36.381Z,13.20
2023-05-12T06:27:03.944Z,13.25
2023-05-12T06:29:31.401Z,13.30
2023-05-12T06:31:58.887Z,13.15
2023-05-12T06:34:26.709Z,13.24
2023-05-12T06:36:55.794Z,13.30
2023-05-12T06:39:23.264Z,13.31
2023-05-12T06:41:50.768Z,13.29
2023-05-12T06:44:18.284Z,13.33
2023-05-12T06:46:46.098Z,13.33
2023-05-12T06:49:13.707Z,13.36
2023-05-12T06:51:41.172Z,13.38
2023-05-12T06:54:10.006Z,13.44
2023-05-12T06:56:37.463Z,13.41
2023-05-12T06:59:04.913Z,13.45
2023-05-12T07:01:33.422Z,13.49
2023-05-12T07:04:01.105Z,13.49
2023-05-12T07:06:28.681Z,13.53
2023-05-12T07:08:56.322Z,13.66
2023-05-12T07:11:25.125Z,13.67
2023-05-12T07:13:53.037Z,13.64
2023-05-12T07:16:20.939Z,13.70
2023-05-12T07:18:48.548Z,13.67
2023-05-12T07:21:16.148Z,13.65
2023-05-12T07:23:43.724Z,13.56
2023-05-12T07:26:11.231Z,13.54
2023-05-12T07:28:40.037Z,13.55
2023-05-12T07:31:08.893Z,13.52
2023-05-12T07:33:37.144Z,13.57
2023-05-12T07:36:05.625Z,13.59
2023-05-12T07:38:33.092Z,13.68
2023-05-12T07:41:00.682Z,13.72
2023-05-12T07:43:28.482Z,13.83
2023-05-12T07:45:59.190Z,13.90
2023-05-12T07:48:26.805Z,13.97
2023-05-12T07:50:54.270Z,13.93
2023-05-12T07:53:22.025Z,13.88
2023-05-12T07:55:49.609Z,13.82
2023-05-12T07:58:17.154Z,13.72
2023-05-12T08:00:44.753Z,13.74
2023-05-12T08:03:14.099Z,13.81
2023-05-12T08:05:41.557Z,13.78
2023-05-12T08:08:12.186Z,13.78
2023-05-12T08:10:39.630Z,13.84
2023-05-12T08:13:07.235Z,13.84
2023-05-12T08:15:34.700Z,13.98
2023-05-12T08:18:02.306Z,14.02
2023-05-12T08:20:31.432Z,14.07
2023-05-12T08:22:58.959Z,14.21
2023-05-12T08:25:27.821Z,14.25
2023-05-12T08:27:55.759Z,14.25
2023-05-12T08:30:23.255Z,14.38
2023-05-12T08:32:50.727Z,14.47
2023-05-12T08:35:19.477Z,14.62
2023-05-12T08:37:48.485Z,14.72
2023-05-12T08:40:19.196Z,14.80
2023-05-12T08:42:55.662Z,14.82
2023-05-12T08:45:23.942Z,14.97
2023-05-12T08:47:52.283Z,14.93
2023-05-12T08:50:23.029Z,14.99
2023-05-12T08:52:52.405Z,15.00
2023-05-12T08:55:20.714Z,14.95
2023-05-12T08:57:49.026Z,15.02
2023-05-12T09:00:17.632Z,14.96
2023-05-12T09:02:53.049Z,14.93
2023-05-12T09:05:22.539Z,14.93
2023-05-12T09:07:52.984Z,14.90
2023-05-12T09:10:34.175Z,14.91
2023-05-12T09:13:04.834Z,14.96
2023-05-12T09:15:35.673Z,15.13
2023-05-12T09:18:03.207Z,15.27
2023-05-12T09:20:32.103Z,15.25
2023-05-12T09:23:14.867Z,15.24
2023-05-12T09:25:42.434Z,15.19
2023-05-12T09:28:10.596Z,15.13
2023-05-12T09:30:38.373Z,15.20
2023-05-12T09:33:07.824Z,15.21
2023-05-12T09:35:39.980Z,15.34
2023-05-12T09:38:09.957Z,15.55
2023-05-12T09:40:37.628Z,15.82
2023-05-12T09:43:06.269Z,15.98
2023-05-12T09:45:36.884Z,16.13
2023-05-12T09:48:11.051Z,16.10
2023-05-12T09:50:47.801Z,16.15
2023-05-12T09:53:18.231Z,16.20
2023-05-12T09:55:46.035Z,16.16
2023-05-12T09:58:16.072Z,16.15
2023-05-12T10:01:12.586Z,16.23
2023-05-12T10:03:33.053Z,16.17
2023-05-12T10:06:06.364Z,16.05
2023-05-12T10:08:39.600Z,15.98
2023-05-12T10:11:07.298Z,15.98
2023-05-12T10:13:35.115Z,15.92
2023-05-12T10:16:03.669Z,15.90
2023-05-12T10:18:32.530Z,15.96
2023-05-12T10:21:00.550Z,15.64
2023-05-12T10:23:28.609Z,15.79
2023-05-12T10:26:01.708Z,15.89
2023-05-12T10:28:29.320Z,15.85
2023-05-12T10:30:57.811Z,15.91
2023-05-12T10:33:25.456Z,15.99
2023-05-12T10:35:53.626Z,16.25
2023-05-12T10:38:21.130Z,16.49
2023-05-12T10:40:59.758Z,16.57
2023-05-12T10:43:28.386Z,16.75
2023-05-12T10:46:19.556Z,16.65
2023-05-12T10:48:55.420Z,16.78
2023-05-12T10:51:26.492Z,16.66
2023-05-12T10:53:57.177Z,16.61
2023-05-12T10:56:29.643Z,16.54
2023-05-12T10:59:12.967Z,16.45
2023-05-12T11:01:43.001Z,16.47
2023-05-12T11:04:15.300Z,16.44
2023-05-12T11:06:45.196Z,16.55
2023-05-12T11:09:13.981Z,16.59
2023-05-12T11:11:45.712Z,16.46
2023-05-12T11:14:13.395Z,16.19
2023-05-12T11:16:43.359Z,16.11
2023-05-12T11:19:11.593Z,16.08
2023-05-12T11:21:39.874Z,15.98
2023-05-12T11:24:13.018Z,16.04
2023-05-12T11:26:41.281Z,15.93
2023-05-12T11:29:10.068Z,15.92
2023-05-12T11:31:37.919Z,15.94
2023-05-12T11:34:12.091Z,15.99
2023-05-12T11:36:42.140Z,16.21
2023-05-12T11:39:14.560Z,16.21
2023-05-12T11:41:42.142Z,16.32
2023-05-12T11:44:18.569Z,16.30
2023-05-12T11:46:57.022Z,16.38
2023-05-12T11:49:24.524Z,16.38
2023-05-12T11:51:53.739Z,16.41
2023-05-12T11:54:21.922Z,16.49
2023-05-12T11:56:49.923Z,16.55
2023-05-12T11:59:29.611Z,16.51
2023-05-12T12:01:57.785Z,16.66
2023-05-12T12:04:36.254Z,16.74
2023-05-12T12:07:04.072Z,16.72
2023-05-12T12:09:33.014Z,16.75
2023-05-12T12:12:00.729Z,16.83
2023-05-12T12:14:29.846Z,16.67
2023-05-12T12:16:57.335Z,16.49
2023-05-12T12:19:25.288Z,16.30
2023-05-12T12:21:52.915Z,16.19
2023-05-12T12:24:20.374Z,16.29
2023-05-12T12:26:47.844Z,16.20
2023-05-12T12:29:15.360Z,16.28
2023-05-12T12:31:44.593Z,16.29
2023-05-12T12:34:12.458Z,16.25
2023-05-12T12:36:40.003Z,16.23
2023-05-12T12:39:08.027Z,16.27
2023-05-12T12:41:35.474Z,16.33
2023-05-12T12:44:02.956Z,16.39
2023-05-12T12:46:30.429Z,16.28
2023-05-12T12:48:59.233Z,16.27
2023-05-12T12:51:38.513Z,16.47
2023-05-12T12:54:12.420Z,16.40
2023-05-12T12:56:39.878Z,16.20
2023-05-12T12:59:07.551Z,16.56
2023-05-12T13:01:35.279Z,16.89
2023-05-12T13:04:04.433Z,16.92
2023-05-12T13:06:31.971Z,16.89
2023-05-12T13:08:59.563Z,17.01
2023-05-12T13:11:27.458Z,16.54
2023-05-12T13:13:54.895Z,16.67
2023-05-12T13:16:22.456Z,16.77
2023-05-12T13:18:51.146Z,16.99
2023-05-12T13:21:19.960Z,16.99
2023-05-12T13:23:47.404Z,17.00
2023-05-12T13:26:14.873Z,17.06
2023-05-12T13:28:43.107Z,17.18
2023-05-12T13:31:10.782Z,17.00
2023-05-12T13:33:38.401Z,16.83
2023-05-12T13:36:06.449Z,16.80
2023-05-12T13:38:35.221Z,17.19
2023-05-12T13:41:03.118Z,17.38
2023-05-12T13:43:30.600Z,17.44
2023-05-12T13:45:58.096Z,17.44
2023-05-12T13:48:25.660Z,17.56
2023-05-12T13:50:53.122Z,17.59
2023-05-12T13:53:20.709Z,17.67
2023-05-12T13:55:49.479Z,17.66
2023-05-12T13:58:16.946Z,17.67
2023-05-12T14:00:44.426Z,17.45
2023-05-12T14:03:11.912Z,17.43
2023-05-12T14:05:39.474Z,17.50
2023-05-12T14:08:06.988Z,17.49
2023-05-12T14:10:35.308Z,17.47
2023-05-12T14:13:04.452Z,17.79
2023-05-12T14:15:44.341Z,17.83
2023-05-12T14:18:15.913Z,17.94
2023-05-12T14:20:46.771Z,18.12
2023-05-12T14:23:14.260Z,17.94
2023-05-12T14:25:41.744Z,17.95
2023-05-12T14:28:10.571Z,17.81
2023-05-12T14:30:38.315Z,17.80
2023-05-12T14:33:06.372Z,17.67
2023-05-12T14:35:33.896Z,17.83
2023-05-12T14:38:04.596Z,18.02
2023-05-12T14:40:32.102Z,17.98
2023-05-12T14:42:59.889Z,18.14
2023-05-12T14:45:28.761Z,18.07
2023-05-12T14:47:56.263Z,18.04
2023-05-12T14:50:24.017Z,18.05
2023-05-12T14:52:51.603Z,18.02
2023-05-12T14:55:19.372Z,18.29
2023-05-12T14:57:47.827Z,18.23
2023-05-12T15:00:16.349Z,18.15
2023-05-12T15:02:46.223Z,18.17
2023-05-12T15:05:15.170Z,18.42
2023-05-12T15:07:42.687Z,18.62
2023-05-12T15:10:11.178Z,18.60
2023-05-12T15:12:38.674Z,18.65
2023-05-12T15:15:08.778Z,18.76
2023-05-12T15:17:36.440Z,18.63
2023-05-12T15:20:06.707Z,18.82
2023-05-12T15:22:34.215Z,18.76
2023-05-12T15:25:04.095Z,18.76
2023-05-12T15:27:32.979Z,18.60
2023-05-12T15:30:00.459Z,18.50
2023-05-12T15:32:28.429Z,18.54
2023-05-12T15:34:57.040Z,18.73
2023-05-12T15:37:25.987Z,18.73
2023-05-12T15:39:53.452Z,18.65
2023-05-12T15:42:26.283Z,18.37
2023-05-12T15:44:59.928Z,18.26
2023-05-12T15:47:27.540Z,17.86
2023-05-12T15:49:55.066Z,17.67
2023-05-12T15:52:22.919Z,17.59
2023-05-12T15:54:51.872Z,17.44
2023-05-12T15:57:19.308Z,17.43
2023-05-12T15:59:47.446Z,17.29
2023-05-12T16:02:15.045Z,17.17
2023-05-12T16:04:45.545Z,17.20
2023-05-12T16:07:13.140Z,17.35
2023-05-12T16:09:40.595Z,17.31
2023-05-12T16:12:46.395Z,17.29
2023-05-12T16:15:14.064Z,17.27
2023-05-12T16:17:41.535Z,17.28
2023-05-12T16:20:10.224Z,17.32
2023-05-12T16:22:37.713Z,17.45
2023-05-12T16:25:06.086Z,17.47
2023-05-12T16:27:36.635Z,17.44
2023-05-12T16:30:04.891Z,17.22
2023-05-12T16:32:32.386Z,17.34
2023-05-12T16:35:00.826Z,17.16
2023-05-12T16:37:28.683Z,17.31
2023-05-12T16:39:56.366Z,17.35
2023-05-12T16:42:23.878Z,17.28
2023-05-12T16:44:55.532Z,17.41
2023-05-12T16:47:23.065Z,17.40
2023-05-12T16:49:53.023Z,17.45
2023-05-12T16:52:20.534Z,17.44
2023-05-12T16:54:48.022Z,17.41
2023-05-12T16:57:15.674Z,17.32
2023-05-12T16:59:43.148Z,17.13
2023-05-12T17:02:12.022Z,17.17
2023-05-12T17:04:39.508Z,17.15
2023-05-12T17:07:07.113Z,17.01
2023-05-12T17:09:34.715Z,16.86
2023-05-12T17:12:04.215Z,16.84
2023-05-12T17:14:31.944Z,16.86
2023-05-12T17:16:59.548Z,16.83
2023-05-12T17:19:28.430Z,16.93
2023-05-12T17:21:56.080Z,17.00
2023-05-12T17:24:23.550Z,17.03
2023-05-12T17:26:51.015Z,16.97
2023-05-12T17:29:18.617Z,16.98
2023-05-12T17:31:46.161Z,16.88
2023-05-12T17:34:13.694Z,16.81
2023-05-12T17:36:42.579Z,16.67
2023-05-12T17:39:10.408Z,16.61
2023-05-12T17:41:37.851Z,16.72
2023-05-12T17:44:05.655Z,16.71
2023-05-12T17:46:33.629Z,16.58
2023-05-12T17:49:01.170Z,16.50
2023-05-12T17:51:29.753Z,16.48
2023-05-12T17:53:58.671Z,16.41
2023-05-12T17:56:26.453Z,16.42
2023-05-12T17:58:54.095Z,16.22
2023-05-12T18:01:21.751Z,16.23
2023-05-12T18:03:49.367Z,16.23
2023-05-12T18:06:16.979Z,16.15
2023-05-12T18:08:44.751Z,16.17
2023-05-12T18:11:14.537Z,16.19
2023-05-12T18:13:42.239Z,16.17
2023-05-12T18:16:18.188Z,16.16
2023-05-12T18:18:55.397Z,15.89
2023-05-12T18:21:22.943Z,15.98
2023-05-12T18:23:50.401Z,15.96
2023-05-12T18:26:19.200Z,15.80
2023-05-12T18:28:46.739Z,15.76
2023-05-12T18:31:16.249Z,15.63
2023-05-12T18:33:47.192Z,15.68
2023-05-12T18:36:14.717Z,15.49
2023-05-12T18:38:42.193Z,15.38
2023-05-12T18:41:09.863Z,15.47
2023-05-12T18:43:38.894Z,15.45
2023-05-12T18:46:06.949Z,15.46
2023-05-12T18:48:34.673Z,15.42
2023-05-12T18:51:02.208Z,15.17
2023-05-12T18:53:29.717Z,15.08
2023-05-12T18:55:57.280Z,14.99
2023-05-12T18:58:24.991Z,15.08
2023-05-12T19:00:53.969Z,15.10
2023-05-12T19:03:21.791Z,15.11
2023-05-12T19:05:49.438Z,15.14
2023-05-12T19:08:17.559Z,15.24
2023-05-12T19:10:45.369Z,15.21
2023-05-12T19:13:13.254Z,15.11
2023-05-12T19:15:40.715Z,15.44
2023-05-12T19:18:09.938Z,15.62
2023-05-12T19:20:37.594Z,15.60
2023-05-12T19:23:05.067Z,15.53
2023-05-12T19:25:32.539Z,15.74
2023-05-12T19:27:59.971Z,15.80
2023-05-12T19:30:28.423Z,15.82
2023-05-12T19:32:55.996Z,15.79
2023-05-12T19:35:25.530Z,15.70
2023-05-12T19:37:52.974Z,15.61
2023-05-12T19:40:20.555Z,15.54
2023-05-12T19:42:48.055Z,15.45
2023-05-12T19:45:15.782Z,15.48
2023-05-12T19:47:43.315Z,15.46
2023-05-12T19:50:11.510Z,15.43
2023-05-12T19:52:40.391Z,15.32
2023-05-12T19:55:08.666Z,15.03
2023-05-12T19:57:36.848Z,14.85
2023-05-12T20:00:05.180Z,14.77
2023-05-12T20:02:32.825Z,14.52
2023-05-12T20:05:00.676Z,14.45
2023-05-12T20:07:28.340Z,14.33
2023-05-12T20:09:57.202Z,14.01
2023-05-12T20:12:24.758Z,13.84
2023-05-12T20:14:52.197Z,13.58
2023-05-12T20:17:19.765Z,13.79
2023-05-12T20:19:47.422Z,13.51
2023-05-12T20:22:14.904Z,13.33
2023-05-12T20:24:42.376Z,13.23
2023-05-12T20:27:11.943Z,13.24
2023-05-12T20:29:39.367Z,13.03
2023-05-12T20:32:07.189Z,12.92
2023-05-12T20:34:34.620Z,12.90
2023-05-12T20:37:02.074Z,12.72
2023-05-12T20:39:29.509Z,12.70
2023-05-12T20:41:56.985Z,12.61
2023-05-12T20:44:26.318Z,12.49
2023-05-12T20:46:53.933Z,12.49
2023-05-12T20:49:21.526Z,12.59
2023-05-12T20:51:48.989Z,12.53
2023-05-12T20:54:16.438Z,12.60
2023-05-12T20:56:43.863Z,12.64
2023-05-12T20:59:11.306Z,12.44
2023-05-12T21:01:40.890Z,12.42
2023-05-12T21:04:08.584Z,12.37
2023-05-12T21:06:36.940Z,12.55
2023-05-12T21:09:05.197Z,12.50
2023-05-12T21:11:32.656Z,12.37
2023-05-12T21:14:00.173Z,12.23
2023-05-12T21:16:27.629Z,12.27
2023-05-12T21:18:56.522Z,12.31
2023-05-12T21:21:23.985Z,12.27
2023-05-12T21:23:51.444Z,12.11
2023-05-12T21:26:18.898Z,12.05
2023-05-12T21:28:46.477Z,11.81
2023-05-12T21:31:13.967Z,11.88
2023-05-12T21:33:41.839Z,11.72
2023-05-12T21:36:10.812Z,11.53
2023-05-12T21:38:38.326Z,11.58
2023-05-12T21:41:05.914Z,11.44
2023-05-12T21:43:33.390Z,11.29
2023-05-12T21:46:03.306Z,11.36
2023-05-12T21:48:31.018Z,11.31
2023-05-12T21:50:59.752Z,11.22
2023-05-12T21:53:28.925Z,11.22
2023-05-12T21:55:56.480Z,11.07
2023-05-12T21:58:23.943Z,11.02
2023-05-12T22:00:52.223Z,10.97
2023-05-12T22:03:20.338Z,10.96
2023-05-12T22:05:48.475Z,10.84
2023-05-12T22:08:16.229Z,11.02
2023-05-12T22:10:45.052Z,11.25
2023-05-12T22:13:12.660Z,11.11
2023-05-12T22:15:40.186Z,10.92
2023-05-12T22:18:07.756Z,11.10
2023-05-12T22:20:35.614Z,11.20
2023-05-12T22:23:03.537Z,10.99
2023-05-12T22:25:31.003Z,10.87
2023-05-12T22:27:59.820Z,10.78
2023-05-12T22:30:27.278Z,10.77
2023-05-12T22:32:54.780Z,10.70
2023-05-12T22:35:22.336Z,10.80
2023-05-12T22:37:49.993Z,10.75
2023-05-12T22:40:22.015Z,10.80
2023-05-12T22:42:49.612Z,11.24
2023-05-12T22:45:18.659Z,11.53
2023-05-12T22:47:46.283Z,11.77
2023-05-12T22:50:13.794Z,11.73
2023-05-12T22:52:41.252Z,11.79
2023-05-12T22:55:09.473Z,11.96
2023-05-12T22:57:38.443Z,11.92
2023-05-12T23:00:07.477Z,12.00
2023-05-12T23:02:36.471Z,12.02
2023-05-12T23:05:04.479Z,11.93
2023-05-12T23:07:32.049Z,12.05
2023-05-12T23:09:59.489Z,12.00
2023-05-12T23:12:27.026Z,12.01
2023-05-12T23:14:54.483Z,12.02
2023-05-12T23:17:21.970Z,12.15
2023-05-12T23:19:52.058Z,12.27
2023-05-12T23:22:19.557Z,12.28
2023-05-12T23:24:47.028Z,12.29
2023-05-12T23:27:14.496Z,12.29
2023-05-12T23:29:41.947Z,12.32
2023-05-12T23:32:09.640Z,12.39
2023-05-12T23:34:40.276Z,12.44
2023-05-12T23:37:09.304Z,12.46
2023-05-12T23:39:37.012Z,12.43
2023-05-12T23:42:04.578Z,12.39
2023-05-12T23:44:32.083Z,12.51
2023-05-12T23:46:59.608Z,12.52
2023-05-12T23:49:27.376Z,12.54
2023-05-12T23:51:54.912Z,12.54
2023-05-12T23:54:23.954Z,12.40
2023-05-12T23:56:51.525Z,12.09
2023-05-12T23:59:19.271Z,12.03
